sensor_id;sensor_type;location;lat;lon;timestamp;pressure;altitude;pressure_sealevel;temperature;humidity
68654;BME280;55636;51.108;13.622;2023-04-25T00:00:50;99496.63;;;8.95;50.98
68654;BME280;55636;51.108;13.622;2023-04-25T00:01:54;99494.69;;;8.96;50.93
68654;BME280;55636;51.108;13.622;2023-04-25T00:02:56;99500.19;;;8.96;50.97
68654;BME280;55636;51.108;13.622;2023-04-25T00:03:59;99501.84;;;8.97;50.90
68654;BME280;55636;51.108;13.622;2023-04-25T00:05:04;99505.41;;;8.97;50.97
68654;BME280;55636;51.108;13.622;2023-04-25T00:06:07;99505.41;;;8.97;51.06
68654;BME280;55636;51.108;13.622;2023-04-25T00:07:10;99506.53;;;8.96;51.00
68654;BME280;55636;51.108;13.622;2023-04-25T00:08:13;99501.03;;;8.96;50.95
68654;BME280;55636;51.108;13.622;2023-04-25T00:09:15;99499.09;;;8.97;51.04
68654;BME280;55636;51.108;13.622;2023-04-25T00:10:19;99502.66;;;8.97;51.04
68654;BME280;55636;51.108;13.622;2023-04-25T00:11:21;99499.09;;;8.97;51.02
68654;BME280;55636;51.108;13.622;2023-04-25T00:12:23;99502.66;;;8.97;51.03
68654;BME280;55636;51.108;13.622;2023-04-25T00:13:26;99500.75;;;8.98;50.97
68654;BME280;55636;51.108;13.622;2023-04-25T00:14:29;99497.16;;;8.97;51.10
68654;BME280;55636;51.108;13.622;2023-04-25T00:15:31;99498.00;;;8.98;51.05
68654;BME280;55636;51.108;13.622;2023-04-25T00:16:34;99504.06;;;9.00;51.14
68654;BME280;55636;51.108;13.622;2023-04-25T00:17:37;99503.25;;;8.99;51.18
68654;BME280;55636;51.108;13.622;2023-04-25T00:18:41;99498.53;;;9.00;51.08
68654;BME280;55636;51.108;13.622;2023-04-25T00:19:44;99497.44;;;9.01;50.95
68654;BME280;55636;51.108;13.622;2023-04-25T00:20:48;99493.88;;;9.00;51.04
68654;BME280;55636;51.108;13.622;2023-04-25T00:21:50;99490.28;;;9.00;51.04
68654;BME280;55636;51.108;13.622;2023-04-25T00:22:52;99501.31;;;9.00;51.11
68654;BME280;55636;51.108;13.622;2023-04-25T00:23:55;99502.16;;;9.00;51.09
68654;BME280;55636;51.108;13.622;2023-04-25T00:24:58;99494.69;;;9.01;51.12
68654;BME280;55636;51.108;13.622;2023-04-25T00:26:02;99495.50;;;9.01;51.03
68654;BME280;55636;51.108;13.622;2023-04-25T00:27:05;99493.59;;;9.02;51.22
68654;BME280;55636;51.108;13.622;2023-04-25T00:28:07;99489.19;;;9.01;51.34
68654;BME280;55636;51.108;13.622;2023-04-25T00:29:09;99499.38;;;9.00;51.48
68654;BME280;55636;51.108;13.622;2023-04-25T00:30:12;99501.31;;;9.00;51.52
68654;BME280;55636;51.108;13.622;2023-04-25T00:31:15;99495.78;;;9.00;51.36
68654;BME280;55636;51.108;13.622;2023-04-25T00:32:17;99496.63;;;9.00;51.39
68654;BME280;55636;51.108;13.622;2023-04-25T00:33:20;99502.16;;;9.00;51.45
68654;BME280;55636;51.108;13.622;2023-04-25T00:34:22;99500.47;;;8.99;51.43
68654;BME280;55636;51.108;13.622;2023-04-25T00:35:24;99497.72;;;8.99;51.41
68654;BME280;55636;51.108;13.622;2023-04-25T00:36:27;99506.81;;;9.00;51.52
68654;BME280;55636;51.108;13.622;2023-04-25T00:37:29;99497.72;;;8.99;51.32
68654;BME280;55636;51.108;13.622;2023-04-25T00:38:32;99506.00;;;8.99;51.47
68654;BME280;55636;51.108;13.622;2023-04-25T00:39:34;99496.06;;;8.98;51.40
68654;BME280;55636;51.108;13.622;2023-04-25T00:40:37;99495.25;;;8.98;51.40
68654;BME280;55636;51.108;13.622;2023-04-25T00:41:39;99490.03;;;8.96;51.54
68654;BME280;55636;51.108;13.622;2023-04-25T00:42:42;99493.31;;;8.98;51.54
68654;BME280;55636;51.108;13.622;2023-04-25T00:43:45;99501.84;;;8.97;51.51
68654;BME280;55636;51.108;13.622;2023-04-25T00:44:48;99497.16;;;8.97;51.56
68654;BME280;55636;51.108;13.622;2023-04-25T00:45:50;99489.16;;;8.96;51.69
68654;BME280;55636;51.108;13.622;2023-04-25T00:46:54;99488.34;;;8.95;51.52
68654;BME280;55636;51.108;13.622;2023-04-25T00:47:56;99489.44;;;8.94;51.62
68654;BME280;55636;51.108;13.622;2023-04-25T00:48:59;99488.63;;;8.94;51.48
68654;BME280;55636;51.108;13.622;2023-04-25T00:50:01;99487.78;;;8.93;51.60
68654;BME280;55636;51.108;13.622;2023-04-25T00:51:04;99484.22;;;8.93;51.71
68654;BME280;55636;51.108;13.622;2023-04-25T00:52:06;99489.72;;;8.93;51.72
68654;BME280;55636;51.108;13.622;2023-04-25T00:53:09;99490.00;;;8.91;51.62
68654;BME280;55636;51.108;13.622;2023-04-25T00:54:12;99487.50;;;8.90;51.92
68654;BME280;55636;51.108;13.622;2023-04-25T00:55:15;99490.25;;;8.90;51.94
68654;BME280;55636;51.108;13.622;2023-04-25T00:56:18;99488.63;;;8.88;51.89
68654;BME280;55636;51.108;13.622;2023-04-25T00:57:21;99488.03;;;8.86;51.99
68654;BME280;55636;51.108;13.622;2023-04-25T00:58:24;99495.50;;;8.86;51.92
68654;BME280;55636;51.108;13.622;2023-04-25T00:59:27;99489.13;;;8.85;52.22
68654;BME280;55636;51.108;13.622;2023-04-25T01:00:30;99486.94;;;8.82;52.12
68654;BME280;55636;51.108;13.622;2023-04-25T01:01:33;99487.75;;;8.83;52.13
68654;BME280;55636;51.108;13.622;2023-04-25T01:02:35;99485.28;;;8.81;52.12
68654;BME280;55636;51.108;13.622;2023-04-25T01:03:39;99488.03;;;8.81;52.18
68654;BME280;55636;51.108;13.622;2023-04-25T01:04:44;99488.31;;;8.80;52.14
68654;BME280;55636;51.108;13.622;2023-04-25T01:05:47;99489.66;;;8.77;52.35
68654;BME280;55636;51.108;13.622;2023-04-25T01:06:50;99488.00;;;8.76;52.48
68654;BME280;55636;51.108;13.622;2023-04-25T01:07:53;99485.50;;;8.75;52.45
68654;BME280;55636;51.108;13.622;2023-04-25T01:08:56;99487.41;;;8.74;52.49
68654;BME280;55636;51.108;13.622;2023-04-25T01:09:58;99486.88;;;8.72;52.75
68654;BME280;55636;51.108;13.622;2023-04-25T01:11:01;99487.13;;;8.70;52.71
68654;BME280;55636;51.108;13.622;2023-04-25T01:12:04;99489.31;;;8.68;52.69
68654;BME280;55636;51.108;13.622;2023-04-25T01:13:06;99492.91;;;8.69;52.69
68654;BME280;55636;51.108;13.622;2023-04-25T01:14:08;99493.16;;;8.67;52.92
68654;BME280;55636;51.108;13.622;2023-04-25T01:15:11;99489.03;;;8.65;52.85
68654;BME280;55636;51.108;13.622;2023-04-25T01:16:13;99489.03;;;8.65;52.86
68654;BME280;55636;51.108;13.622;2023-04-25T01:17:17;99476.09;;;8.60;53.01
68654;BME280;55636;51.108;13.622;2023-04-25T01:18:21;99483.50;;;8.60;52.94
68654;BME280;55636;51.108;13.622;2023-04-25T01:19:23;99476.59;;;8.57;52.90
68654;BME280;55636;51.108;13.622;2023-04-25T01:20:26;99488.72;;;8.56;52.98
68654;BME280;55636;51.108;13.622;2023-04-25T01:21:31;99490.63;;;8.55;52.87
68654;BME280;55636;51.108;13.622;2023-04-25T01:22:34;99488.44;;;8.52;52.97
68654;BME280;55636;51.108;13.622;2023-04-25T01:23:40;99484.84;;;8.52;52.99
68654;BME280;55636;51.108;13.622;2023-04-25T01:24:43;99487.03;;;8.50;52.95
68654;BME280;55636;51.108;13.622;2023-04-25T01:25:48;99494.72;;;8.48;52.96
68654;BME280;55636;51.108;13.622;2023-04-25T01:26:50;99488.69;;;8.46;52.95
68654;BME280;55636;51.108;13.622;2023-04-25T01:27:58;99487.84;;;8.45;53.06
68654;BME280;55636;51.108;13.622;2023-04-25T01:29:02;99471.88;;;8.42;53.00
68654;BME280;55636;51.108;13.622;2023-04-25T01:30:06;99491.94;;;8.43;52.95
68654;BME280;55636;51.108;13.622;2023-04-25T01:31:11;99487.81;;;8.40;53.10
68654;BME280;55636;51.108;13.622;2023-04-25T01:32:14;99493.31;;;8.40;53.06
68654;BME280;55636;51.108;13.622;2023-04-25T01:33:16;99485.31;;;8.38;53.10
68654;BME280;55636;51.108;13.622;2023-04-25T01:34:19;99488.34;;;8.37;52.78
68654;BME280;55636;51.108;13.622;2023-04-25T01:35:22;99485.88;;;8.35;52.95
68654;BME280;55636;51.108;13.622;2023-04-25T01:36:28;99484.75;;;8.31;52.82
68654;BME280;55636;51.108;13.622;2023-04-25T01:37:31;99483.91;;;8.31;52.96
68654;BME280;55636;51.108;13.622;2023-04-25T01:38:33;99475.94;;;8.29;52.99
68654;BME280;55636;51.108;13.622;2023-04-25T01:39:36;99481.69;;;8.28;53.10
68654;BME280;55636;51.108;13.622;2023-04-25T01:40:39;99476.47;;;8.26;53.10
68654;BME280;55636;51.108;13.622;2023-04-25T01:41:42;99475.09;;;8.24;53.06
68654;BME280;55636;51.108;13.622;2023-04-25T01:42:45;99479.75;;;8.23;52.94
68654;BME280;55636;51.108;13.622;2023-04-25T01:43:48;99478.09;;;8.22;53.03
68654;BME280;55636;51.108;13.622;2023-04-25T01:44:51;99477.53;;;8.20;52.91
68654;BME280;55636;51.108;13.622;2023-04-25T01:45:53;99482.22;;;8.19;52.90
68654;BME280;55636;51.108;13.622;2023-04-25T01:46:56;99475.88;;;8.19;52.98
68654;BME280;55636;51.108;13.622;2023-04-25T01:48:00;99479.97;;;8.16;52.88
68654;BME280;55636;51.108;13.622;2023-04-25T01:49:03;99478.31;;;8.15;52.87
68654;BME280;55636;51.108;13.622;2023-04-25T01:50:08;99478.59;;;8.14;52.86
68654;BME280;55636;51.108;13.622;2023-04-25T01:51:11;99478.84;;;8.12;52.84
68654;BME280;55636;51.108;13.622;2023-04-25T01:52:14;99474.72;;;8.10;52.79
68654;BME280;55636;51.108;13.622;2023-04-25T01:53:21;99484.91;;;8.09;52.88
68654;BME280;55636;51.108;13.622;2023-04-25T01:54:24;99472.50;;;8.07;52.90
68654;BME280;55636;51.108;13.622;2023-04-25T01:55:27;99479.09;;;8.05;53.02
68654;BME280;55636;51.108;13.622;2023-04-25T01:56:40;99484.03;;;8.03;53.01
68654;BME280;55636;51.108;13.622;2023-04-25T01:57:45;99489.78;;;8.02;53.01
68654;BME280;55636;51.108;13.622;2023-04-25T01:58:48;99488.13;;;8.01;52.93
68654;BME280;55636;51.108;13.622;2023-04-25T02:00:01;99489.25;;;8.00;52.93
68654;BME280;55636;51.108;13.622;2023-04-25T02:01:14;99494.16;;;7.98;52.83
68654;BME280;55636;51.108;13.622;2023-04-25T02:02:22;99491.13;;;7.94;52.73
68654;BME280;55636;51.108;13.622;2023-04-25T02:03:25;99493.56;;;7.91;52.81
68654;BME280;55636;51.108;13.622;2023-04-25T02:04:30;99494.41;;;7.91;53.01
68654;BME280;55636;51.108;13.622;2023-04-25T02:05:36;99492.75;;;7.90;53.10
68654;BME280;55636;51.108;13.622;2023-04-25T02:06:41;99491.34;;;7.87;53.29
68654;BME280;55636;51.108;13.622;2023-04-25T02:07:44;99484.44;;;7.85;53.20
68654;BME280;55636;51.108;13.622;2023-04-25T02:08:46;99486.63;;;7.83;53.28
68654;BME280;55636;51.108;13.622;2023-04-25T02:09:53;99490.22;;;7.83;53.03
68654;BME280;55636;51.108;13.622;2023-04-25T02:10:58;99490.75;;;7.80;52.94
68654;BME280;55636;51.108;13.622;2023-04-25T02:12:08;99496.50;;;7.79;53.16
68654;BME280;55636;51.108;13.622;2023-04-25T02:13:35;99487.97;;;7.75;53.04
68654;BME280;55636;51.108;13.622;2023-04-25T02:14:49;99487.38;;;7.73;53.08
68654;BME280;55636;51.108;13.622;2023-04-25T02:15:59;99495.63;;;7.73;53.28
68654;BME280;55636;51.108;13.622;2023-04-25T02:17:02;99489.56;;;7.71;53.11
68654;BME280;55636;51.108;13.622;2023-04-25T02:18:06;99495.31;;;7.69;53.27
68654;BME280;55636;51.108;13.622;2023-04-25T02:19:08;99497.25;;;7.69;53.26
68654;BME280;55636;51.108;13.622;2023-04-25T02:20:11;99488.69;;;7.65;53.25
68654;BME280;55636;51.108;13.622;2023-04-25T02:21:14;99488.69;;;7.65;53.26
68654;BME280;55636;51.108;13.622;2023-04-25T02:22:17;99492.53;;;7.64;53.37
68654;BME280;55636;51.108;13.622;2023-04-25T02:23:20;99487.31;;;7.63;53.24
68654;BME280;55636;51.108;13.622;2023-04-25T02:24:23;99489.22;;;7.62;53.39
68654;BME280;55636;51.108;13.622;2023-04-25T02:25:25;99489.47;;;7.61;53.31
68654;BME280;55636;51.108;13.622;2023-04-25T02:26:28;99488.66;;;7.60;53.39
68654;BME280;55636;51.108;13.622;2023-04-25T02:27:30;99484.25;;;7.59;53.24
68654;BME280;55636;51.108;13.622;2023-04-25T02:28:33;99481.75;;;7.58;53.09
68654;BME280;55636;51.108;13.622;2023-04-25T02:29:39;99488.34;;;7.56;53.39
68654;BME280;55636;51.108;13.622;2023-04-25T02:30:41;99490.84;;;7.58;53.38
68654;BME280;55636;51.108;13.622;2023-04-25T02:31:43;99484.78;;;7.56;53.38
68654;BME280;55636;51.108;13.622;2023-04-25T02:32:46;99484.19;;;7.54;53.44
68654;BME280;55636;51.108;13.622;2023-04-25T02:33:48;99484.19;;;7.54;53.24
68654;BME280;55636;51.108;13.622;2023-04-25T02:34:51;99484.47;;;7.52;53.49
68654;BME280;55636;51.108;13.622;2023-04-25T02:35:54;99478.41;;;7.50;53.51
68654;BME280;55636;51.108;13.622;2023-04-25T02:36:56;99482.81;;;7.51;53.31
68654;BME280;55636;51.108;13.622;2023-04-25T02:37:59;99482.25;;;7.49;53.46
68654;BME280;55636;51.108;13.622;2023-04-25T02:39:01;99487.75;;;7.49;53.61
68654;BME280;55636;51.108;13.622;2023-04-25T02:40:06;99483.34;;;7.48;53.58
68654;BME280;55636;51.108;13.622;2023-04-25T02:41:08;99481.66;;;7.47;53.55
68654;BME280;55636;51.108;13.622;2023-04-25T02:42:11;99478.38;;;7.45;53.65
68654;BME280;55636;51.108;13.622;2023-04-25T02:43:13;99483.03;;;7.45;53.69
68654;BME280;55636;51.108;13.622;2023-04-25T02:44:15;99483.28;;;7.43;53.57
68654;BME280;55636;51.108;13.622;2023-04-25T02:45:19;99481.63;;;7.42;53.68
68654;BME280;55636;51.108;13.622;2023-04-25T02:46:22;99474.47;;;7.41;53.62
68654;BME280;55636;51.108;13.622;2023-04-25T02:47:40;99484.06;;;7.38;53.59
68654;BME280;55636;51.108;13.622;2023-04-25T02:48:42;99484.31;;;7.37;53.71
68654;BME280;55636;51.108;13.622;2023-04-25T02:49:45;99480.75;;;7.36;53.69
68654;BME280;55636;51.108;13.622;2023-04-25T02:50:48;99484.84;;;7.34;53.76
68654;BME280;55636;51.108;13.622;2023-04-25T02:51:50;99480.44;;;7.33;53.73
68654;BME280;55636;51.108;13.622;2023-04-25T02:52:53;99478.78;;;7.32;53.84
68654;BME280;55636;51.108;13.622;2023-04-25T02:54:00;99481.78;;;7.30;53.88
68654;BME280;55636;51.108;13.622;2023-04-25T02:55:03;99479.31;;;7.29;53.85
68654;BME280;55636;51.108;13.622;2023-04-25T02:56:08;99477.66;;;7.28;53.87
68654;BME280;55636;51.108;13.622;2023-04-25T02:57:10;99478.72;;;7.27;53.92
68654;BME280;55636;51.108;13.622;2023-04-25T02:58:13;99479.00;;;7.25;53.95
68654;BME280;55636;51.108;13.622;2023-04-25T02:59:20;99482.81;;;7.24;53.90
68654;BME280;55636;51.108;13.622;2023-04-25T03:00:23;99475.69;;;7.23;53.92
68654;BME280;55636;51.108;13.622;2023-04-25T03:01:25;99475.13;;;7.21;53.84
68654;BME280;55636;51.108;13.622;2023-04-25T03:02:28;99474.31;;;7.20;53.93
68654;BME280;55636;51.108;13.622;2023-04-25T03:03:31;99471.78;;;7.19;53.95
68654;BME280;55636;51.108;13.622;2023-04-25T03:04:33;99470.16;;;7.18;53.96
68654;BME280;55636;51.108;13.622;2023-04-25T03:05:36;99472.06;;;7.17;53.89
68654;BME280;55636;51.108;13.622;2023-04-25T03:06:40;99469.56;;;7.16;54.04
68654;BME280;55636;51.108;13.622;2023-04-25T03:07:43;99472.56;;;7.14;54.04
68654;BME280;55636;51.108;13.622;2023-04-25T03:08:47;99473.63;;;7.13;54.19
68654;BME280;55636;51.108;13.622;2023-04-25T03:09:49;99470.06;;;7.13;54.19
68654;BME280;55636;51.108;13.622;2023-04-25T03:10:51;99474.72;;;7.12;54.12
68654;BME280;55636;51.108;13.622;2023-04-25T03:11:58;99482.41;;;7.10;54.11
68654;BME280;55636;51.108;13.622;2023-04-25T03:13:02;99478.25;;;7.07;54.23
68654;BME280;55636;51.108;13.622;2023-04-25T03:14:04;99477.41;;;7.07;54.30
68654;BME280;55636;51.108;13.622;2023-04-25T03:15:07;99479.34;;;7.06;54.17
68654;BME280;55636;51.108;13.622;2023-04-25T03:16:10;99476.84;;;7.05;54.24
68654;BME280;55636;51.108;13.622;2023-04-25T03:17:12;99477.94;;;7.04;54.18
68654;BME280;55636;51.108;13.622;2023-04-25T03:18:15;99482.63;;;7.03;54.18
68654;BME280;55636;51.108;13.622;2023-04-25T03:19:17;99480.09;;;7.02;54.19
68654;BME280;55636;51.108;13.622;2023-04-25T03:20:20;99477.63;;;7.00;54.21
68654;BME280;55636;51.108;13.622;2023-04-25T03:21:23;99477.88;;;6.99;54.38
68654;BME280;55636;51.108;13.622;2023-04-25T03:22:25;99477.28;;;6.97;54.36
68654;BME280;55636;51.108;13.622;2023-04-25T03:23:28;99477.28;;;6.97;54.38
68654;BME280;55636;51.108;13.622;2023-04-25T03:24:31;99481.16;;;6.96;54.33
68654;BME280;55636;51.108;13.622;2023-04-25T03:25:33;99480.56;;;6.94;54.54
68654;BME280;55636;51.108;13.622;2023-04-25T03:26:36;99480.56;;;6.94;54.64
68654;BME280;55636;51.108;13.622;2023-04-25T03:27:38;99475.34;;;6.92;54.57
68654;BME280;55636;51.108;13.622;2023-04-25T03:28:41;99475.59;;;6.90;54.78
68654;BME280;55636;51.108;13.622;2023-04-25T03:29:43;99475.59;;;6.90;54.83
68654;BME280;55636;51.108;13.622;2023-04-25T03:30:46;99476.94;;;6.88;55.05
68654;BME280;55636;51.108;13.622;2023-04-25T03:31:50;99479.69;;;6.88;54.95
68654;BME280;55636;51.108;13.622;2023-04-25T03:32:54;99473.63;;;6.86;55.11
68654;BME280;55636;51.108;13.622;2023-04-25T03:33:57;99480.19;;;6.85;55.19
68654;BME280;55636;51.108;13.622;2023-04-25T03:34:59;99485.69;;;6.85;55.08
68654;BME280;55636;51.108;13.622;2023-04-25T03:36:03;99480.44;;;6.83;55.05
68654;BME280;55636;51.108;13.622;2023-04-25T03:37:05;99480.72;;;6.82;55.11
68654;BME280;55636;51.108;13.622;2023-04-25T03:38:11;99483.72;;;6.80;55.19
68654;BME280;55636;51.108;13.622;2023-04-25T03:39:15;99480.97;;;6.80;55.29
68654;BME280;55636;51.108;13.622;2023-04-25T03:40:22;99479.56;;;6.78;55.20
68654;BME280;55636;51.108;13.622;2023-04-25T03:41:49;99479.84;;;6.76;55.28
68654;BME280;55636;51.108;13.622;2023-04-25T03:42:52;99480.91;;;6.75;55.19
68654;BME280;55636;51.108;13.622;2023-04-25T03:43:55;99481.19;;;6.73;55.28
68654;BME280;55636;51.108;13.622;2023-04-25T03:44:57;99480.34;;;6.73;55.20
68654;BME280;55636;51.108;13.622;2023-04-25T03:46:00;99482.53;;;6.71;55.18
68654;BME280;55636;51.108;13.622;2023-04-25T03:47:02;99480.84;;;6.70;55.17
68654;BME280;55636;51.108;13.622;2023-04-25T03:48:05;99481.13;;;6.68;55.13
68654;BME280;55636;51.108;13.622;2023-04-25T03:49:08;99481.38;;;6.67;55.19
68654;BME280;55636;51.108;13.622;2023-04-25T03:50:29;99479.72;;;6.66;55.10
68654;BME280;55636;51.108;13.622;2023-04-25T03:51:32;99474.47;;;6.64;55.23
68654;BME280;55636;51.108;13.622;2023-04-25T03:52:36;99484.06;;;6.62;55.15
68654;BME280;55636;51.108;13.622;2023-04-25T03:53:38;99484.06;;;6.62;55.17
68654;BME280;55636;51.108;13.622;2023-04-25T03:54:49;99476.31;;;6.59;55.21
68654;BME280;55636;51.108;13.622;2023-04-25T03:55:54;99473.84;;;6.57;55.12
68654;BME280;55636;51.108;13.622;2023-04-25T03:56:57;99481.25;;;6.56;55.23
68654;BME280;55636;51.108;13.622;2023-04-25T03:58:02;99485.34;;;6.54;55.36
68654;BME280;55636;51.108;13.622;2023-04-25T03:59:04;99470.75;;;6.53;55.22
68654;BME280;55636;51.108;13.622;2023-04-25T04:00:07;99471.84;;;6.52;55.29
68654;BME280;55636;51.108;13.622;2023-04-25T04:01:15;99461.13;;;6.51;55.36
68654;BME280;55636;51.108;13.622;2023-04-25T04:02:18;99475.09;;;6.49;55.27
68654;BME280;55636;51.108;13.622;2023-04-25T04:03:20;99471.78;;;6.47;55.48
68654;BME280;55636;51.108;13.622;2023-04-25T04:04:23;99470.97;;;6.47;55.37
68654;BME280;55636;51.108;13.622;2023-04-25T04:05:26;99468.47;;;6.45;55.50
68654;BME280;55636;51.108;13.622;2023-04-25T04:06:30;99473.38;;;6.43;55.67
68654;BME280;55636;51.108;13.622;2023-04-25T04:07:39;99476.13;;;6.43;55.69
68654;BME280;55636;51.108;13.622;2023-04-25T04:08:46;99478.03;;;6.43;55.68
68654;BME280;55636;51.108;13.622;2023-04-25T04:09:48;99472.22;;;6.39;55.89
68654;BME280;55636;51.108;13.622;2023-04-25T04:10:59;99482.94;;;6.40;55.89
68654;BME280;55636;51.108;13.622;2023-04-25T04:12:01;99478.56;;;6.39;55.87
68654;BME280;55636;51.108;13.622;2023-04-25T04:13:06;99479.91;;;6.37;55.94
68654;BME280;55636;51.108;13.622;2023-04-25T04:14:08;99480.72;;;6.37;56.04
68654;BME280;55636;51.108;13.622;2023-04-25T04:15:16;99479.06;;;6.36;55.93
68654;BME280;55636;51.108;13.622;2023-04-25T04:16:20;99474.41;;;6.37;55.90
68654;BME280;55636;51.108;13.622;2023-04-25T04:17:22;99479.91;;;6.37;56.12
68654;BME280;55636;51.108;13.622;2023-04-25T04:18:27;99480.97;;;6.36;56.01
68654;BME280;55636;51.108;13.622;2023-04-25T04:19:30;99477.66;;;6.34;55.90
68654;BME280;55636;51.108;13.622;2023-04-25T04:20:40;99474.09;;;6.33;55.89
68654;BME280;55636;51.108;13.622;2023-04-25T04:21:42;99475.16;;;6.32;56.06
68654;BME280;55636;51.108;13.622;2023-04-25T04:22:45;99482.56;;;6.32;56.05
68654;BME280;55636;51.108;13.622;2023-04-25T04:23:48;99474.34;;;6.32;56.04
68654;BME280;55636;51.108;13.622;2023-04-25T04:24:51;99479.84;;;6.32;56.14
68654;BME280;55636;51.108;13.622;2023-04-25T04:26:02;99475.44;;;6.31;56.11
68654;BME280;55636;51.108;13.622;2023-04-25T04:27:17;99480.06;;;6.30;56.20
68654;BME280;55636;51.108;13.622;2023-04-25T04:28:26;99477.59;;;6.29;56.11
68654;BME280;55636;51.108;13.622;2023-04-25T04:29:36;99480.59;;;6.27;56.17
68654;BME280;55636;51.108;13.622;2023-04-25T04:30:45;99476.75;;;6.28;56.26
68654;BME280;55636;51.108;13.622;2023-04-25T04:31:49;99481.16;;;6.29;56.35
68654;BME280;55636;51.108;13.622;2023-04-25T04:32:52;99478.44;;;6.29;56.36
68654;BME280;55636;51.108;13.622;2023-04-25T04:33:55;99489.41;;;6.29;56.37
68654;BME280;55636;51.108;13.622;2023-04-25T04:34:59;99492.38;;;6.28;56.39
68654;BME280;55636;51.108;13.622;2023-04-25T04:36:03;99494.03;;;6.29;56.39
68654;BME280;55636;51.108;13.622;2023-04-25T04:37:08;99497.38;;;6.31;56.42
68654;BME280;55636;51.108;13.622;2023-04-25T04:38:10;99497.63;;;6.29;56.42
68654;BME280;55636;51.108;13.622;2023-04-25T04:39:13;99487.22;;;6.31;56.53
68654;BME280;55636;51.108;13.622;2023-04-25T04:40:38;99485.31;;;6.32;56.38
68654;BME280;55636;51.108;13.622;2023-04-25T04:41:54;99493.03;;;6.35;56.46
68654;BME280;55636;51.108;13.622;2023-04-25T04:43:15;99497.19;;;6.37;56.37
68654;BME280;55636;51.108;13.622;2023-04-25T04:44:35;99493.09;;;6.40;56.38
68654;BME280;55636;51.108;13.622;2023-04-25T04:45:46;99492.84;;;6.42;56.31
68654;BME280;55636;51.108;13.622;2023-04-25T04:47:14;99499.22;;;6.47;56.31
68654;BME280;55636;51.108;13.622;2023-04-25T04:48:37;99492.38;;;6.50;56.37
68654;BME280;55636;51.108;13.622;2023-04-25T04:50:16;99500.69;;;6.55;56.31
68654;BME280;55636;51.108;13.622;2023-04-25T04:51:38;99497.19;;;6.60;56.21
68654;BME280;55636;51.108;13.622;2023-04-25T04:52:49;99500.81;;;6.65;56.33
68654;BME280;55636;51.108;13.622;2023-04-25T04:54:18;99501.72;;;6.71;56.46
68654;BME280;55636;51.108;13.622;2023-04-25T04:55:56;99500.19;;;6.80;56.39
68654;BME280;55636;51.108;13.622;2023-04-25T04:57:27;99505.22;;;6.88;56.37
68654;BME280;55636;51.108;13.622;2023-04-25T04:58:47;99506.41;;;6.98;56.34
68654;BME280;55636;51.108;13.622;2023-04-25T05:00:03;99506.22;;;7.04;56.20
68654;BME280;55636;51.108;13.622;2023-04-25T05:01:28;99514.56;;;7.15;56.15
68654;BME280;55636;51.108;13.622;2023-04-25T05:02:55;99510.28;;;7.24;56.27
68654;BME280;55636;51.108;13.622;2023-04-25T05:04:05;99510.66;;;7.33;56.05
68654;BME280;55636;51.108;13.622;2023-04-25T05:05:18;99509.94;;;7.43;55.93
68654;BME280;55636;51.108;13.622;2023-04-25T05:06:32;99505.63;;;7.52;56.03
68654;BME280;55636;51.108;13.622;2023-04-25T05:07:54;99510.97;;;7.64;55.77
68654;BME280;55636;51.108;13.622;2023-04-25T05:09:17;99519.84;;;7.76;55.62
68654;BME280;55636;51.108;13.622;2023-04-25T05:10:45;99508.16;;;7.91;55.57
68654;BME280;55636;51.108;13.622;2023-04-25T05:12:10;99519.50;;;8.05;55.39
68654;BME280;55636;51.108;13.622;2023-04-25T05:13:32;99517.97;;;8.19;55.02
68654;BME280;55636;51.108;13.622;2023-04-25T05:14:45;99511.44;;;8.31;55.03
68654;BME280;55636;51.108;13.622;2023-04-25T05:16:05;99514.53;;;8.45;54.87
68654;BME280;55636;51.108;13.622;2023-04-25T05:17:14;99514.31;;;8.57;54.56
68654;BME280;55636;51.108;13.622;2023-04-25T05:18:37;99514.41;;;8.72;54.48
68654;BME280;55636;51.108;13.622;2023-04-25T05:19:45;99514.19;;;8.84;54.04
68654;BME280;55636;51.108;13.622;2023-04-25T05:21:07;99518.66;;;9.00;53.88
68654;BME280;55636;51.108;13.622;2023-04-25T05:22:22;99522.84;;;9.13;53.54
68654;BME280;55636;51.108;13.622;2023-04-25T05:23:54;99518.47;;;9.33;53.33
68654;BME280;55636;51.108;13.622;2023-04-25T05:25:16;99512.16;;;9.48;53.10
68654;BME280;55636;51.108;13.622;2023-04-25T05:26:37;99511.34;;;9.63;52.53
68654;BME280;55636;51.108;13.622;2023-04-25T05:27:59;99512.19;;;9.79;51.97
68654;BME280;55636;51.108;13.622;2023-04-25T05:29:13;99503.34;;;9.92;51.82
68654;BME280;55636;51.108;13.622;2023-04-25T05:30:28;99505.28;;;10.07;51.42
68654;BME280;55636;51.108;13.622;2023-04-25T05:31:38;99502.78;;;10.21;51.45
68654;BME280;55636;51.108;13.622;2023-04-25T05:32:46;99503.03;;;10.35;51.11
68654;BME280;55636;51.108;13.622;2023-04-25T05:33:49;99507.44;;;10.46;50.54
68654;BME280;55636;51.108;13.622;2023-04-25T05:34:52;99504.06;;;10.60;50.16
68654;BME280;55636;51.108;13.622;2023-04-25T05:35:59;99503.75;;;10.72;49.86
68654;BME280;55636;51.108;13.622;2023-04-25T05:37:02;99495.13;;;10.83;49.68
68654;BME280;55636;51.108;13.622;2023-04-25T05:38:06;99507.50;;;10.96;49.27
68654;BME280;55636;51.108;13.622;2023-04-25T05:39:32;99501.03;;;11.11;48.90
68654;BME280;55636;51.108;13.622;2023-04-25T05:40:54;99506.50;;;11.27;48.65
68654;BME280;55636;51.108;13.622;2023-04-25T05:42:13;99508.34;;;11.42;48.19
68654;BME280;55636;51.108;13.622;2023-04-25T05:43:34;99506.59;;;11.56;47.92
68654;BME280;55636;51.108;13.622;2023-04-25T05:45:03;99506.19;;;11.73;47.55
68654;BME280;55636;51.108;13.622;2023-04-25T05:46:25;99512.72;;;11.88;46.88
68654;BME280;55636;51.108;13.622;2023-04-25T05:47:46;99510.63;;;12.04;46.64
68654;BME280;55636;51.108;13.622;2023-04-25T05:49:13;99505.25;;;12.17;46.25
68654;BME280;55636;51.108;13.622;2023-04-25T05:50:36;99508.69;;;12.33;45.56
68654;BME280;55636;51.108;13.622;2023-04-25T05:51:52;99504.38;;;12.46;45.54
68654;BME280;55636;51.108;13.622;2023-04-25T05:53:15;99498.97;;;12.60;44.95